Time;durP1;ratioP1;P1;durP2;ratioP2;P2;SDS_P1;SDS_P2;PMS_P1;PMS_P2;Temp;Humidity;BMP_temperature;BMP_pressure;BME280_temperature;BME280_humidity;BME280_pressure;Samples;Min_cycle;Max_cycle;Signal;HPM_P1;HPM_P2
2022/09/22 00:01:26;;;;;;;8.40;5.82;;;;;;;;;;5050507;28;20641;-78
2022/09/22 00:03:55;;;;;;;5.38;4.88;;;;;;;;;;5042279;28;20039;-78
2022/09/22 00:06:27;;;;;;;7.18;4.63;;;;;;;;;;5030604;28;20098;-78
2022/09/22 00:08:56;;;;;;;6.15;4.57;;;;;;;;;;5016936;28;21377;-78
2022/09/22 00:11:27;;;;;;;5.63;4.72;;;;;;;;;;5063117;28;20041;-78
2022/09/22 00:13:58;;;;;;;5.15;4.40;;;;;;;;;;5066946;28;20048;-78
2022/09/22 00:16:35;;;;;;;6.25;4.43;;;;;;;;;;5059718;28;20038;-78
2022/09/22 00:19:06;;;;;;;8.32;4.85;;;;;;;;;;5068034;28;20464;-78
2022/09/22 00:21:34;;;;;;;8.47;4.60;;;;;;;;;;5064813;28;20040;-77
2022/09/22 00:24:02;;;;;;;6.43;4.88;;;;;;;;;;5067835;28;20672;-78
2022/09/22 00:26:33;;;;;;;6.43;4.53;;;;;;;;;;5056420;28;20045;-77
2022/09/22 00:29:01;;;;;;;6.18;4.50;;;;;;;;;;5035803;28;20044;-78
2022/09/22 00:31:28;;;;;;;4.00;3.70;;;;;;;;;;5056951;28;20087;-78
2022/09/22 00:33:56;;;;;;;4.68;4.18;;;;;;;;;;5061792;28;20033;-78
2022/09/22 00:36:25;;;;;;;5.28;4.00;;;;;;;;;;5052125;28;20124;-79
2022/09/22 00:38:53;;;;;;;4.38;4.07;;;;;;;;;;5073603;28;20044;-78
2022/09/22 00:41:25;;;;;;;9.10;4.03;;;;;;;;;;5064648;28;20093;-78
2022/09/22 00:44:12;;;;;;;4.00;3.70;;;;;;;;;;5064778;28;20041;-78
2022/09/22 00:46:40;;;;;;;5.60;3.78;;;;;;;;;;5071813;28;20040;-78
2022/09/22 00:49:08;;;;;;;4.70;4.32;;;;;;;;;;5047761;28;20114;-78
2022/09/22 00:51:37;;;;;;;5.13;4.60;;;;;;;;;;5034234;28;20033;-78
2022/09/22 00:54:06;;;;;;;7.13;3.88;;;;;;;;;;5073161;28;20106;-77
2022/09/22 00:56:37;;;;;;;4.30;3.80;;;;;;;;;;5071351;28;20060;-78
2022/09/22 00:59:14;;;;;;;8.57;4.20;;;;;;;;;;5070225;28;20082;-78
2022/09/22 01:01:41;;;;;;;4.60;4.28;;;;;;;;;;5067572;28;20046;-78
2022/09/22 01:04:09;;;;;;;5.22;4.30;;;;;;;;;;5073336;28;20135;-78
2022/09/22 01:06:36;;;;;;;4.38;3.60;;;;;;;;;;5072918;28;20069;-78
2022/09/22 01:09:04;;;;;;;4.35;4.05;;;;;;;;;;5056144;28;20064;-78
2022/09/22 01:11:32;;;;;;;8.20;4.30;;;;;;;;;;5057453;28;20043;-78
2022/09/22 01:14:18;;;;;;;14.00;4.47;;;;;;;;;;5072496;28;20095;-78
2022/09/22 01:17:04;;;;;;;7.55;4.40;;;;;;;;;;5052650;28;20042;-78
2022/09/22 01:20:08;;;;;;;20.77;4.30;;;;;;;;;;5049324;28;20575;-78
2022/09/22 01:22:45;;;;;;;16.33;4.75;;;;;;;;;;5007780;28;20846;-78
2022/09/22 01:25:24;;;;;;;5.18;4.78;;;;;;;;;;5049227;28;20052;-78
2022/09/22 01:28:01;;;;;;;8.40;4.20;;;;;;;;;;5048560;28;20048;-78
2022/09/22 01:30:34;;;;;;;10.15;5.22;;;;;;;;;;5071376;28;20043;-78
2022/09/22 01:33:22;;;;;;;29.33;4.82;;;;;;;;;;5048557;28;20044;-81
2022/09/22 01:35:55;;;;;;;20.77;4.85;;;;;;;;;;5048853;28;20045;-77
2022/09/22 01:38:31;;;;;;;16.80;4.47;;;;;;;;;;5074515;28;20055;-78
2022/09/22 01:40:58;;;;;;;14.38;3.80;;;;;;;;;;5048118;28;20036;-78
2022/09/22 01:43:35;;;;;;;12.07;3.55;;;;;;;;;;5070658;28;20571;-78
2022/09/22 01:46:06;;;;;;;4.00;3.63;;;;;;;;;;5048533;28;20068;-79
2022/09/22 01:48:35;;;;;;;4.90;3.20;;;;;;;;;;5064173;28;20095;-78
2022/09/22 01:51:11;;;;;;;3.95;3.65;;;;;;;;;;5051273;28;20677;-78
2022/09/22 01:53:42;;;;;;;2.60;2.50;;;;;;;;;;5049842;28;20044;-78
2022/09/22 01:56:10;;;;;;;3.78;3.30;;;;;;;;;;5067747;28;20048;-78
2022/09/22 01:58:45;;;;;;;2.80;2.70;;;;;;;;;;5067599;28;20040;-78
2022/09/22 02:01:17;;;;;;;3.50;2.70;;;;;;;;;;5064001;28;20584;-78
2022/09/22 02:03:50;;;;;;;4.03;2.75;;;;;;;;;;5062103;28;20049;-78
2022/09/22 02:06:17;;;;;;;;;;;;;;;;;;5065301;28;20075;-77
2022/09/22 02:08:46;;;;;;;3.08;2.80;;;;;;;;;;5068207;28;20014;-78
2022/09/22 02:11:15;;;;;;;4.65;3.17;;;;;;;;;;5066464;28;20032;-77
2022/09/22 02:13:42;;;;;;;3.30;3.00;;;;;;;;;;5066381;28;20044;-78
2022/09/22 02:16:12;;;;;;;9.98;3.20;;;;;;;;;;5068204;28;20598;-77
2022/09/22 02:18:45;;;;;;;3.70;3.47;;;;;;;;;;5067329;28;20074;-78
2022/09/22 02:21:13;;;;;;;7.03;3.63;;;;;;;;;;5060837;28;20055;-78
2022/09/22 02:23:41;;;;;;;3.85;3.30;;;;;;;;;;5068774;28;20106;-78
2022/09/22 02:26:09;;;;;;;4.13;3.83;;;;;;;;;;5072495;28;20045;-78
2022/09/22 02:28:38;;;;;;;8.98;3.15;;;;;;;;;;5067409;28;20131;-78
2022/09/22 02:31:06;;;;;;;5.45;3.40;;;;;;;;;;5071842;28;20068;-78
2022/09/22 02:33:47;;;;;;;5.18;3.22;;;;;;;;;;5072392;28;20040;-78
2022/09/22 02:36:49;;;;;;;4.25;3.85;;;;;;;;;;5058685;28;20035;-78
2022/09/22 02:39:27;;;;;;;5.80;3.58;;;;;;;;;;4983682;28;20039;-78
2022/09/22 02:42:03;;;;;;;4.43;3.50;;;;;;;;;;5055263;28;20053;-78
2022/09/22 02:44:30;;;;;;;6.35;4.00;;;;;;;;;;5045715;28;20051;-78
2022/09/22 02:47:03;;;;;;;4.80;3.85;;;;;;;;;;5074881;28;20047;-77
2022/09/22 02:49:31;;;;;;;6.63;3.13;;;;;;;;;;5057566;28;20040;-78
2022/09/22 02:51:58;;;;;;;3.85;3.50;;;;;;;;;;5052826;28;20050;-78
2022/09/22 02:54:26;;;;;;;9.00;3.10;;;;;;;;;;5072210;28;20037;-78
2022/09/22 02:56:53;;;;;;;4.45;3.55;;;;;;;;;;5048509;28;20048;-78
2022/09/22 02:59:20;;;;;;;4.07;3.63;;;;;;;;;;5049385;28;20048;-78
2022/09/22 03:01:48;;;;;;;5.00;3.17;;;;;;;;;;5062896;28;20128;-78
2022/09/22 03:04:16;;;;;;;5.28;3.40;;;;;;;;;;5065593;28;20045;-78
2022/09/22 03:06:43;;;;;;;6.60;3.50;;;;;;;;;;5064190;28;20136;-78
2022/09/22 03:09:11;;;;;;;5.13;3.30;;;;;;;;;;5065129;28;20044;-78
2022/09/22 03:11:38;;;;;;;6.82;3.30;;;;;;;;;;5064147;28;20144;-78
2022/09/22 03:14:05;;;;;;;3.83;3.38;;;;;;;;;;5064178;28;20032;-78
2022/09/22 03:16:32;;;;;;;3.83;3.60;;;;;;;;;;5063018;28;20124;-78
2022/09/22 03:19:00;;;;;;;3.60;2.90;;;;;;;;;;5050549;28;20040;-78
2022/09/22 03:21:27;;;;;;;4.88;2.92;;;;;;;;;;5046479;28;20139;-78
2022/09/22 03:23:54;;;;;;;2.72;2.53;;;;;;;;;;5068121;28;20438;-78
2022/09/22 03:26:22;;;;;;;8.00;2.97;;;;;;;;;;5037492;28;20128;-78
2022/09/22 03:28:49;;;;;;;3.13;2.78;;;;;;;;;;5067448;28;20044;-78
2022/09/22 03:31:16;;;;;;;5.50;3.20;;;;;;;;;;5046524;28;20072;-78
2022/09/22 03:33:43;;;;;;;7.45;3.88;;;;;;;;;;5067572;28;20033;-78
2022/09/22 03:36:16;;;;;;;5.05;3.60;;;;;;;;;;5051968;28;20579;-78
2022/09/22 03:38:44;;;;;;;3.45;3.25;;;;;;;;;;5049162;28;20412;-78
2022/09/22 03:41:11;;;;;;;3.13;2.92;;;;;;;;;;5052804;28;20484;-78
2022/09/22 03:43:38;;;;;;;3.83;3.50;;;;;;;;;;5049011;28;20060;-78
2022/09/22 03:46:06;;;;;;;3.08;2.88;;;;;;;;;;5063901;28;20044;-78
2022/09/22 03:48:33;;;;;;;6.53;3.63;;;;;;;;;;5068743;28;20044;-77
2022/09/22 03:51:01;;;;;;;4.05;3.60;;;;;;;;;;5049491;28;20045;-78
2022/09/22 03:53:28;;;;;;;5.18;3.90;;;;;;;;;;5052425;28;20036;-78
2022/09/22 03:56:06;;;;;;;6.72;3.63;;;;;;;;;;5065884;28;20532;-78
2022/09/22 03:58:35;;;;;;;4.68;4.25;;;;;;;;;;5045022;28;20032;-78
2022/09/22 04:01:02;;;;;;;4.95;3.45;;;;;;;;;;5063605;28;20116;-78
2022/09/22 04:03:30;;;;;;;5.38;3.60;;;;;;;;;;5062825;28;20047;-78
2022/09/22 04:05:57;;;;;;;5.18;3.38;;;;;;;;;;5066516;28;20040;-78
2022/09/22 04:08:25;;;;;;;23.33;3.90;;;;;;;;;;5053686;28;20063;-78
2022/09/22 04:10:52;;;;;;;19.20;3.83;;;;;;;;;;5082168;28;20045;-78
2022/09/22 04:13:19;;;;;;;22.42;4.00;;;;;;;;;;5045731;28;20037;-78
2022/09/22 04:15:47;;;;;;;46.47;3.50;;;;;;;;;;5081708;28;20040;-78
2022/09/22 04:18:14;;;;;;;12.93;4.22;;;;;;;;;;5055557;28;20045;-78
2022/09/22 04:20:43;;;;;;;11.23;3.45;;;;;;;;;;5068691;28;20082;-78
2022/09/22 04:23:11;;;;;;;4.43;3.78;;;;;;;;;;5057891;28;20063;-78
2022/09/22 04:25:39;;;;;;;9.13;3.65;;;;;;;;;;5072964;28;20051;-78
2022/09/22 04:28:06;;;;;;;9.23;3.50;;;;;;;;;;5068503;28;20044;-78
2022/09/22 04:30:34;;;;;;;4.50;3.03;;;;;;;;;;5058997;28;20067;-78
2022/09/22 04:33:01;;;;;;;3.60;3.40;;;;;;;;;;5079569;28;20047;-78
2022/09/22 04:35:29;;;;;;;3.70;3.40;;;;;;;;;;5079086;28;20066;-78
2022/09/22 04:37:57;;;;;;;4.43;3.55;;;;;;;;;;5081472;28;20067;-77
2022/09/22 04:40:24;;;;;;;13.98;3.90;;;;;;;;;;5068129;28;20041;-77
2022/09/22 04:42:53;;;;;;;47.55;4.47;;;;;;;;;;5047982;28;20066;-79
2022/09/22 04:45:20;;;;;;;4.05;3.50;;;;;;;;;;5067556;28;20898;-77
2022/09/22 04:47:48;;;;;;;6.07;3.33;;;;;;;;;;5068287;28;20040;-77
2022/09/22 04:50:16;;;;;;;3.95;3.67;;;;;;;;;;5066707;28;20127;-78
2022/09/22 04:52:44;;;;;;;3.92;3.00;;;;;;;;;;5062713;28;20094;-77
2022/09/22 04:55:12;;;;;;;4.78;3.83;;;;;;;;;;5049368;28;20048;-77
2022/09/22 04:57:40;;;;;;;4.43;3.85;;;;;;;;;;5049629;28;20090;-78
2022/09/22 05:00:08;;;;;;;7.95;3.70;;;;;;;;;;5067376;28;20083;-80
2022/09/22 05:02:35;;;;;;;4.80;3.50;;;;;;;;;;5048243;28;20043;-78
2022/09/22 05:05:04;;;;;;;3.67;3.38;;;;;;;;;;5068126;28;20132;-78
2022/09/22 05:07:31;;;;;;;7.05;2.90;;;;;;;;;;5085991;28;20051;-78
2022/09/22 05:09:59;;;;;;;13.00;3.53;;;;;;;;;;5048323;28;20048;-78
2022/09/22 05:12:27;;;;;;;3.35;3.05;;;;;;;;;;5049891;28;20532;-81
2022/09/22 05:14:54;;;;;;;3.72;3.33;;;;;;;;;;5071577;28;20123;-78
2022/09/22 05:17:21;;;;;;;5.05;3.05;;;;;;;;;;5067035;28;20071;-77
2022/09/22 05:19:49;;;;;;;4.10;3.80;;;;;;;;;;5065929;28;20155;-78
2022/09/22 05:22:16;;;;;;;4.57;3.70;;;;;;;;;;5065021;28;20409;-78
2022/09/22 05:24:44;;;;;;;4.18;3.42;;;;;;;;;;5066368;28;20044;-82
2022/09/22 05:27:12;;;;;;;3.35;3.10;;;;;;;;;;5089686;22;20048;-74
2022/09/22 05:29:39;;;;;;;12.10;11.00;;;;;;;;;;5079913;28;20445;-72
2022/09/22 05:32:06;;;;;;;7.30;5.20;;;;;;;;;;5062100;28;20067;-74
2022/09/22 05:34:34;;;;;;;5.60;4.70;;;;;;;;;;5107948;28;20040;-74
2022/09/22 05:37:01;;;;;;;13.65;4.20;;;;;;;;;;5108495;28;20070;-75
2022/09/22 05:39:28;;;;;;;10.32;4.10;;;;;;;;;;5079240;28;20448;-74
2022/09/22 05:41:56;;;;;;;4.55;4.25;;;;;;;;;;5094632;28;20078;-75
2022/09/22 05:44:23;;;;;;;4.35;4.05;;;;;;;;;;5099235;28;20047;-76
2022/09/22 05:46:50;;;;;;;6.78;4.22;;;;;;;;;;5091376;28;20104;-76
2022/09/22 05:49:17;;;;;;;6.90;5.85;;;;;;;;;;5122266;28;20512;-76
2022/09/22 05:51:45;;;;;;;6.72;5.25;;;;;;;;;;5102178;28;20039;-75
2022/09/22 05:54:12;;;;;;;8.27;4.38;;;;;;;;;;5115267;28;20059;-74
2022/09/22 05:56:40;;;;;;;4.15;3.88;;;;;;;;;;5111058;28;20039;-75
2022/09/22 05:59:07;;;;;;;4.90;4.45;;;;;;;;;;5120279;28;20059;-75
2022/09/22 06:01:34;;;;;;;15.77;5.07;;;;;;;;;;5117372;28;20110;-75
2022/09/22 06:04:02;;;;;;;5.13;4.70;;;;;;;;;;5100371;28;20063;-75
2022/09/22 06:06:29;;;;;;;10.23;5.70;;;;;;;;;;5115288;28;20040;-75
2022/09/22 06:08:56;;;;;;;30.73;4.50;;;;;;;;;;5108053;28;20150;-77
2022/09/22 06:11:24;;;;;;;11.10;5.32;;;;;;;;;;5117219;28;20047;-76
2022/09/22 06:13:51;;;;;;;15.30;4.75;;;;;;;;;;5115404;28;20560;-75
2022/09/22 06:16:19;;;;;;;18.25;4.10;;;;;;;;;;5093721;28;20047;-75
2022/09/22 06:18:47;;;;;;;14.80;4.30;;;;;;;;;;5117026;28;20046;-76
2022/09/22 06:21:19;;;;;;;7.63;4.78;;;;;;;;;;5109159;28;20097;-81
2022/09/22 06:23:46;;;;;;;16.27;4.57;;;;;;;;;;5126632;28;20561;-74
2022/09/22 06:26:14;;;;;;;8.43;4.10;;;;;;;;;;5129285;28;20150;-75
2022/09/22 06:28:41;;;;;;;5.53;5.03;;;;;;;;;;5107193;28;20125;-76
2022/09/22 06:31:08;;;;;;;4.32;3.95;;;;;;;;;;5113646;28;20732;-76
2022/09/22 06:33:35;;;;;;;5.38;3.75;;;;;;;;;;5110923;28;20043;-75
2022/09/22 06:36:06;;;;;;;4.90;4.50;;;;;;;;;;5112855;27;20498;-76
2022/09/22 06:38:34;;;;;;;5.70;4.20;;;;;;;;;;5125761;27;20069;-75
2022/09/22 06:41:03;;;;;;;5.90;3.92;;;;;;;;;;5128952;27;20134;-76
2022/09/22 06:43:33;;;;;;;3.40;3.20;;;;;;;;;;5130863;27;20091;-77
2022/09/22 06:46:01;;;;;;;4.60;3.53;;;;;;;;;;5132405;27;20050;-77
2022/09/22 06:48:30;;;;;;;6.22;4.88;;;;;;;;;;5125999;27;20118;-77
2022/09/22 06:50:58;;;;;;;3.35;3.15;;;;;;;;;;5114019;27;20138;-75
2022/09/22 06:53:25;;;;;;;2.55;2.45;;;;;;;;;;5122130;27;20109;-76
2022/09/22 06:55:54;;;;;;;2.60;2.40;;;;;;;;;;5092057;28;20066;-76
2022/09/22 06:58:21;;;;;;;2.28;2.17;;;;;;;;;;5124467;27;20110;-77
2022/09/22 07:00:49;;;;;;;2.90;2.70;;;;;;;;;;5112668;28;20493;-76
2022/09/22 07:03:25;;;;;;;2.67;2.58;;;;;;;;;;5120847;27;20035;-76
2022/09/22 07:05:57;;;;;;;2.70;2.50;;;;;;;;;;5107106;28;20050;-75
2022/09/22 07:08:25;;;;;;;2.78;2.65;;;;;;;;;;5099290;28;20043;-76
2022/09/22 07:10:53;;;;;;;3.22;3.03;;;;;;;;;;5119744;27;20066;-76
2022/09/22 07:13:21;;;;;;;3.47;2.88;;;;;;;;;;5109833;27;20067;-76
2022/09/22 07:15:48;;;;;;;5.25;2.90;;;;;;;;;;5124001;27;20122;-75
2022/09/22 07:18:16;;;;;;;4.30;3.10;;;;;;;;;;5121415;27;20035;-76
2022/09/22 07:20:44;;;;;;;3.40;3.20;;;;;;;;;;5122971;27;20043;-76
2022/09/22 07:23:20;;;;;;;3.22;2.92;;;;;;;;;;5108102;27;20044;-75
2022/09/22 07:25:55;;;;;;;3.60;3.08;;;;;;;;;;5123254;27;20068;-76
2022/09/22 07:28:27;;;;;;;3.47;3.13;;;;;;;;;;5120016;27;20040;-76
2022/09/22 07:30:56;;;;;;;2.97;2.78;;;;;;;;;;5107895;27;20120;-76
2022/09/22 07:33:23;;;;;;;3.45;3.15;;;;;;;;;;5077106;27;20042;-76
2022/09/22 07:36:01;;;;;;;3.95;3.60;;;;;;;;;;5104896;27;20038;-77
2022/09/22 07:38:31;;;;;;;3.67;3.38;;;;;;;;;;5090290;27;20038;-75
2022/09/22 07:40:59;;;;;;;3.17;2.97;;;;;;;;;;5122708;27;20091;-75
2022/09/22 07:43:27;;;;;;;3.47;3.25;;;;;;;;;;5091872;27;20134;-77
2022/09/22 07:45:56;;;;;;;3.60;3.10;;;;;;;;;;5120437;27;20075;-75
2022/09/22 07:48:36;;;;;;;3.40;3.10;;;;;;;;;;5103206;27;20476;-75
2022/09/22 07:51:03;;;;;;;3.85;3.47;;;;;;;;;;5119251;27;20049;-76
2022/09/22 07:53:31;;;;;;;4.57;3.53;;;;;;;;;;5131374;27;20039;-77
2022/09/22 07:56:02;;;;;;;4.00;3.70;;;;;;;;;;5113172;27;20114;-77
2022/09/22 07:58:30;;;;;;;4.68;4.20;;;;;;;;;;5100022;27;20051;-76
2022/09/22 08:00:57;;;;;;;4.68;4.03;;;;;;;;;;5113217;27;20039;-76
2022/09/22 08:03:24;;;;;;;4.70;4.30;;;;;;;;;;5102514;27;20549;-75
2022/09/22 08:05:58;;;;;;;3.92;3.63;;;;;;;;;;5121031;27;20716;-76
2022/09/22 08:08:33;;;;;;;5.45;4.38;;;;;;;;;;5121617;27;20047;-76
2022/09/22 08:11:04;;;;;;;6.75;4.22;;;;;;;;;;5099729;27;20122;-76
2022/09/22 08:13:33;;;;;;;3.95;3.65;;;;;;;;;;5120901;27;20697;-74
2022/09/22 08:16:02;;;;;;;5.40;4.90;;;;;;;;;;5102107;27;20034;-74
2022/09/22 08:18:30;;;;;;;5.18;4.68;;;;;;;;;;5118304;27;20415;-77
2022/09/22 08:21:00;;;;;;;5.43;4.45;;;;;;;;;;5086159;27;20103;-76
2022/09/22 08:23:30;;;;;;;4.30;3.90;;;;;;;;;;5120137;27;20039;-78
2022/09/22 08:26:02;;;;;;;4.50;4.20;;;;;;;;;;5085783;27;20406;-75
2022/09/22 08:28:32;;;;;;;3.80;3.50;;;;;;;;;;5117344;27;20074;-76
2022/09/22 08:30:59;;;;;;;3.20;3.00;;;;;;;;;;5102535;27;20614;-76
2022/09/22 08:33:27;;;;;;;3.20;3.00;;;;;;;;;;5115037;27;20512;-76
2022/09/22 08:35:55;;;;;;;3.00;2.65;;;;;;;;;;5098205;28;20487;-75
2022/09/22 08:38:22;;;;;;;3.63;3.10;;;;;;;;;;5114207;27;20047;-77
2022/09/22 08:40:59;;;;;;;3.17;2.95;;;;;;;;;;5111309;27;20464;-76
2022/09/22 08:43:28;;;;;;;3.30;3.10;;;;;;;;;;5127971;27;20062;-79
2022/09/22 08:45:55;;;;;;;3.17;2.97;;;;;;;;;;5129352;27;20130;-77
2022/09/22 08:54:03;;;;;;;3.33;2.90;;;;;;;;;;5111793;27;20264;-75
2022/09/22 08:56:35;;;;;;;3.90;2.72;;;;;;;;;;5110371;27;20133;-78
2022/09/22 08:59:03;;;;;;;;;;;;;;;;;;5112771;27;20496;-77
2022/09/22 09:01:45;;;;;;;3.35;2.75;;;;;;;;;;5110726;27;20345;-75
2022/09/22 09:04:17;;;;;;;2.97;2.78;;;;;;;;;;5118965;27;20399;-76
2022/09/22 09:06:45;;;;;;;;;;;;;;;;;;5125173;27;20043;-76
2022/09/22 09:09:12;;;;;;;2.35;2.20;;;;;;;;;;5129168;27;19919;-76
2022/09/22 09:11:43;;;;;;;2.63;2.42;;;;;;;;;;5076934;27;20075;-78
2022/09/22 09:14:11;;;;;;;4.20;2.45;;;;;;;;;;5092505;28;20043;-77
2022/09/22 09:16:42;;;;;;;3.03;2.60;;;;;;;;;;5073321;27;20570;-77
2022/09/22 09:19:16;;;;;;;3.25;2.95;;;;;;;;;;5062770;28;20047;-78
2022/09/22 09:21:49;;;;;;;2.60;2.40;;;;;;;;;;5084587;28;20051;-76
2022/09/22 09:24:35;;;;;;;2.40;2.03;;;;;;;;;;5083048;28;20075;-76
2022/09/22 09:27:24;;;;;;;2.15;2.05;;;;;;;;;;5072032;28;20043;-76
2022/09/22 09:29:59;;;;;;;2.30;2.20;;;;;;;;;;5120640;28;20051;-75
2022/09/22 09:32:33;;;;;;;2.03;1.92;;;;;;;;;;5078066;28;20492;-75
2022/09/22 09:35:02;;;;;;;2.20;2.10;;;;;;;;;;5074939;28;20436;-76
2022/09/22 09:37:30;;;;;;;2.00;1.90;;;;;;;;;;5076639;28;20039;-76
2022/09/22 09:40:00;;;;;;;1.58;1.48;;;;;;;;;;5108111;28;20073;-76
2022/09/22 09:42:34;;;;;;;1.95;1.70;;;;;;;;;;5076784;28;20051;-75
2022/09/22 09:45:02;;;;;;;1.50;1.40;;;;;;;;;;5104603;28;20130;-76
2022/09/22 09:47:39;;;;;;;1.58;1.25;;;;;;;;;;5060782;28;20055;-76
2022/09/22 09:50:08;;;;;;;1.80;1.50;;;;;;;;;;5070886;28;20075;-75
2022/09/22 09:52:37;;;;;;;1.67;1.45;;;;;;;;;;5108952;28;20417;-76
2022/09/22 09:55:17;;;;;;;1.58;1.48;;;;;;;;;;5090446;28;20055;-76
2022/09/22 09:58:02;;;;;;;1.73;1.60;;;;;;;;;;5090820;28;20051;-76
2022/09/22 10:00:32;;;;;;;1.60;1.50;;;;;;;;;;5098809;28;20141;-76
2022/09/22 10:03:00;;;;;;;1.85;1.75;;;;;;;;;;5113000;28;20504;-76
2022/09/22 10:05:27;;;;;;;2.13;1.50;;;;;;;;;;5056902;28;20065;-76
2022/09/22 10:08:01;;;;;;;1.48;1.38;;;;;;;;;;5091938;28;20098;-77
2022/09/22 10:10:28;;;;;;;2.45;1.45;;;;;;;;;;5076803;28;20071;-76
2022/09/22 10:12:56;;;;;;;1.27;1.20;;;;;;;;;;5081833;28;20511;-75
2022/09/22 10:15:25;;;;;;;1.27;1.25;;;;;;;;;;5092105;28;20051;-76
2022/09/22 10:17:52;;;;;;;1.40;1.30;;;;;;;;;;5094763;27;20374;-79
2022/09/22 10:20:25;;;;;;;1.17;1.17;;;;;;;;;;5114977;27;20076;-78
2022/09/22 10:22:53;;;;;;;3.28;1.50;;;;;;;;;;5107414;28;20039;-78
2022/09/22 10:25:23;;;;;;;1.40;1.40;;;;;;;;;;5124571;27;20134;-77
2022/09/22 10:28:01;;;;;;;1.70;1.30;;;;;;;;;;5124346;27;20027;-76
2022/09/22 10:30:32;;;;;;;1.40;1.30;;;;;;;;;;5097138;28;20043;-76
2022/09/22 10:33:04;;;;;;;1.75;1.65;;;;;;;;;;5113063;28;20031;-76
2022/09/22 10:35:32;;;;;;;1.63;1.42;;;;;;;;;;5098410;27;20073;-76
2022/09/22 10:38:08;;;;;;;1.95;1.75;;;;;;;;;;5127348;27;20051;-77
2022/09/22 10:40:38;;;;;;;1.70;1.60;;;;;;;;;;5110789;28;20082;-76
2022/09/22 10:43:10;;;;;;;1.65;1.38;;;;;;;;;;5128171;27;20055;-76
2022/09/22 10:45:37;;;;;;;;;;;;;;;;;;5125500;27;20046;-76
2022/09/22 10:48:11;;;;;;;2.42;2.13;;;;;;;;;;5093627;28;19965;-75
2022/09/22 10:50:38;;;;;;;1.77;1.67;;;;;;;;;;5111626;28;20074;-76
2022/09/22 10:53:13;;;;;;;2.90;1.80;;;;;;;;;;5108957;28;20046;-76
2022/09/22 10:55:52;;;;;;;1.70;1.48;;;;;;;;;;5111330;28;20618;-76
2022/09/22 10:58:19;;;;;;;1.85;1.40;;;;;;;;;;5111788;28;20036;-76
2022/09/22 11:00:47;;;;;;;1.80;1.70;;;;;;;;;;5126166;27;20129;-76
2022/09/22 11:03:29;;;;;;;1.52;1.42;;;;;;;;;;5129551;27;20047;-76
2022/09/22 11:12:17;;;;;;;3.13;1.60;;;;;;;;;;5117610;27;20540;-78
2022/09/22 11:14:45;;;;;;;;;;;;;;;;;;5118610;27;20088;-76
2022/09/22 11:17:21;;;;;;;1.50;1.40;;;;;;;;;;5102290;27;20011;-76
2022/09/22 11:20:00;;;;;;;1.52;1.42;;;;;;;;;;5116492;27;20541;-76
2022/09/22 11:22:38;;;;;;;2.58;1.50;;;;;;;;;;5117407;27;20074;-77
2022/09/22 11:25:12;;;;;;;1.77;1.67;;;;;;;;;;5116238;27;20131;-76
2022/09/22 11:27:58;;;;;;;2.40;1.42;;;;;;;;;;5130327;22;20028;-69
2022/09/22 11:30:30;;;;;;;1.40;1.30;;;;;;;;;;5080425;28;20048;-70
2022/09/22 11:33:16;;;;;;;3.50;1.48;;;;;;;;;;5066820;28;20166;-68
2022/09/22 11:35:54;;;;;;;1.35;1.25;;;;;;;;;;5077833;28;20033;-69
2022/09/22 11:38:30;;;;;;;3.10;2.10;;;;;;;;;;5083344;28;20036;-69
2022/09/22 11:41:00;;;;;;;1.55;1.50;;;;;;;;;;5080538;28;20773;-70
2022/09/22 11:43:47;;;;;;;1.65;1.50;;;;;;;;;;5082196;28;20048;-69
2022/09/22 11:46:14;;;;;;;1.45;1.40;;;;;;;;;;5042043;28;20045;-69
2022/09/22 11:48:50;;;;;;;3.03;1.45;;;;;;;;;;5041655;28;20496;-69
2022/09/22 11:51:33;;;;;;;3.05;1.35;;;;;;;;;;5049436;28;20515;-69
2022/09/22 11:54:03;;;;;;;1.75;1.65;;;;;;;;;;5064767;28;20032;-69
2022/09/22 11:56:46;;;;;;;2.45;1.77;;;;;;;;;;5067345;28;20044;-68
2022/09/22 11:59:19;;;;;;;1.10;1.10;;;;;;;;;;5082631;28;20052;-69
2022/09/22 12:01:48;;;;;;;1.60;1.50;;;;;;;;;;5048901;28;20538;-69
2022/09/22 12:04:34;;;;;;;2.08;1.50;;;;;;;;;;5033701;28;20052;-69
2022/09/22 12:07:06;;;;;;;1.98;1.55;;;;;;;;;;5052728;28;20044;-68
2022/09/22 12:09:37;;;;;;;2.05;1.73;;;;;;;;;;5040323;28;20048;-68
2022/09/22 12:12:06;;;;;;;1.83;1.73;;;;;;;;;;5052469;28;20228;-69
2022/09/22 12:14:34;;;;;;;1.40;1.30;;;;;;;;;;5049224;28;20091;-70
2022/09/22 12:17:12;;;;;;;1.55;1.45;;;;;;;;;;5051211;28;20490;-69
2022/09/22 12:19:52;;;;;;;1.83;1.48;;;;;;;;;;5048638;28;20044;-70
2022/09/22 12:22:37;;;;;;;1.50;1.40;;;;;;;;;;5056329;28;20045;-69
2022/09/22 12:25:04;;;;;;;2.83;1.60;;;;;;;;;;5044222;28;20106;-68
2022/09/22 12:27:32;;;;;;;1.52;1.42;;;;;;;;;;5048482;28;20052;-69
2022/09/22 12:30:01;;;;;;;1.70;1.60;;;;;;;;;;5021103;28;20517;-69
2022/09/22 12:32:33;;;;;;;2.25;1.40;;;;;;;;;;5046254;28;20056;-69
2022/09/22 12:35:01;;;;;;;;;;;;;;;;;;5047237;28;20047;-69
2022/09/22 12:37:30;;;;;;;2.17;1.98;;;;;;;;;;5046911;28;19928;-69
2022/09/22 12:40:03;;;;;;;1.75;1.40;;;;;;;;;;5064579;28;20446;-69
2022/09/22 12:42:35;;;;;;;3.17;1.35;;;;;;;;;;5061610;28;20044;-69
2022/09/22 12:45:17;;;;;;;1.83;1.20;;;;;;;;;;5042371;28;20230;-69
2022/09/22 12:47:44;;;;;;;;;;;;;;;;;;5044030;28;20049;-69
2022/09/22 12:50:24;;;;;;;1.33;1.33;;;;;;;;;;5025491;28;19922;-69
2022/09/22 12:52:53;;;;;;;1.52;1.30;;;;;;;;;;5042788;28;20048;-68
2022/09/22 12:55:36;;;;;;;3.10;1.42;;;;;;;;;;5042664;28;20049;-69
2022/09/22 12:58:24;;;;;;;2.25;1.50;;;;;;;;;;5028884;28;20040;-68
2022/09/22 13:00:55;;;;;;;1.00;1.00;;;;;;;;;;5062376;28;20040;-69
2022/09/22 13:03:25;;;;;;;1.60;1.20;;;;;;;;;;5062513;28;20408;-69
2022/09/22 13:06:13;;;;;;;2.13;1.58;;;;;;;;;;5061577;28;20041;-69
2022/09/22 13:09:00;;;;;;;1.30;1.20;;;;;;;;;;5013582;28;20052;-69
2022/09/22 13:11:46;;;;;;;1.50;1.25;;;;;;;;;;5040250;28;20206;-69
2022/09/22 13:14:32;;;;;;;1.45;1.35;;;;;;;;;;5060428;28;20044;-69
2022/09/22 13:17:20;;;;;;;1.20;1.20;;;;;;;;;;5062546;28;20044;-69
2022/09/22 13:19:56;;;;;;;1.70;1.10;;;;;;;;;;5062531;28;20040;-69
2022/09/22 13:22:24;;;;;;;3.42;1.10;;;;;;;;;;5062810;28;20475;-69
2022/09/22 13:24:51;;;;;;;1.00;1.00;;;;;;;;;;5047146;28;20461;-70
2022/09/22 13:27:19;;;;;;;1.10;0.98;;;;;;;;;;5065464;28;20143;-70
2022/09/22 13:30:06;;;;;;;1.30;1.08;;;;;;;;;;5066530;28;20049;-70
2022/09/22 13:32:34;;;;;;;1.95;0.90;;;;;;;;;;5063363;28;20542;-70
2022/09/22 13:35:02;;;;;;;0.90;0.90;;;;;;;;;;5027595;28;20080;-69
2022/09/22 13:37:30;;;;;;;3.05;0.85;;;;;;;;;;5052391;28;20048;-70
2022/09/22 13:39:57;;;;;;;1.10;1.10;;;;;;;;;;5047879;28;20048;-70
2022/09/22 13:42:32;;;;;;;1.02;1.00;;;;;;;;;;5040056;28;20079;-69
2022/09/22 13:45:05;;;;;;;1.08;0.90;;;;;;;;;;5049500;28;20746;-70
2022/09/22 13:47:33;;;;;;;0.80;0.80;;;;;;;;;;5043370;28;22401;-69
2022/09/22 13:50:04;;;;;;;1.63;0.80;;;;;;;;;;5046930;28;20095;-70
2022/09/22 13:52:32;;;;;;;2.33;1.13;;;;;;;;;;5040364;28;20047;-68
2022/09/22 13:55:05;;;;;;;1.95;1.00;;;;;;;;;;5062180;28;20047;-69
2022/09/22 13:57:34;;;;;;;1.20;1.10;;;;;;;;;;5062072;28;20388;-70
2022/09/22 14:00:04;;;;;;;1.20;1.10;;;;;;;;;;5067706;28;20106;-70
2022/09/22 14:02:31;;;;;;;1.20;1.10;;;;;;;;;;5049729;28;20083;-69
2022/09/22 14:05:06;;;;;;;1.27;1.10;;;;;;;;;;5066636;28;20095;-69
2022/09/22 14:07:36;;;;;;;1.00;1.00;;;;;;;;;;5065239;28;20090;-70
2022/09/22 14:10:26;;;;;;;1.10;1.10;;;;;;;;;;5066875;28;20041;-70
2022/09/22 14:12:54;;;;;;;1.20;1.20;;;;;;;;;;5065877;28;20151;-69
2022/09/22 14:15:37;;;;;;;1.85;1.00;;;;;;;;;;5064374;28;20040;-70
2022/09/22 14:18:09;;;;;;;1.15;1.10;;;;;;;;;;5067493;28;20043;-70
2022/09/22 14:20:42;;;;;;;1.40;1.30;;;;;;;;;;5068089;28;20059;-69
2022/09/22 14:23:15;;;;;;;1.52;1.10;;;;;;;;;;5068856;28;20106;-70
2022/09/22 14:25:42;;;;;;;2.20;1.40;;;;;;;;;;5066406;28;20123;-70
2022/09/22 14:28:16;;;;;;;1.70;1.60;;;;;;;;;;5066085;28;20052;-70
2022/09/22 14:30:44;;;;;;;5.28;4.10;;;;;;;;;;5049375;28;20118;-70
2022/09/22 14:33:15;;;;;;;3.97;3.30;;;;;;;;;;5061898;28;20138;-70
2022/09/22 14:35:43;;;;;;;2.40;2.20;;;;;;;;;;5060575;28;20478;-69
2022/09/22 14:38:16;;;;;;;2.90;2.70;;;;;;;;;;5065807;28;20044;-70
2022/09/22 14:40:54;;;;;;;2.33;2.22;;;;;;;;;;5044795;28;20044;-70
2022/09/22 14:43:22;;;;;;;2.10;2.00;;;;;;;;;;5061468;28;20119;-69
2022/09/22 14:45:57;;;;;;;2.20;2.10;;;;;;;;;;5064805;28;20072;-69
2022/09/22 14:48:29;;;;;;;2.10;1.92;;;;;;;;;;5066315;28;20056;-70
2022/09/22 14:50:57;;;;;;;;;;;;;;;;;;5055321;28;20045;-68
2022/09/22 14:53:26;;;;;;;1.80;1.70;;;;;;;;;;5046678;28;20297;-69
2022/09/22 14:55:59;;;;;;;2.72;1.73;;;;;;;;;;5044616;28;20564;-68
2022/09/22 14:58:28;;;;;;;1.08;0.88;;;;;;;;;;5057961;28;20117;-69
2022/09/22 15:03:45;;;;;;;0.90;0.90;;;;;;;;;;5088480;28;20479;-69
2022/09/22 15:06:14;;;;;;;0.93;0.93;;;;;;;;;;5084919;28;20043;-69
2022/09/22 15:08:43;;;;;;;0.85;0.85;;;;;;;;;;5086117;28;20071;-69
2022/09/22 15:11:10;;;;;;;0.90;0.90;;;;;;;;;;5086448;28;20040;-68
2022/09/22 15:13:39;;;;;;;1.40;1.30;;;;;;;;;;5085148;28;20047;-69
2022/09/22 15:16:26;;;;;;;1.75;1.55;;;;;;;;;;5062208;28;20043;-69
2022/09/22 15:18:54;;;;;;;1.40;1.40;;;;;;;;;;5051987;28;20044;-69
2022/09/22 15:21:28;;;;;;;2.33;1.48;;;;;;;;;;5064269;28;20052;-69